Panarama Park, Iowa
Current Conditions -  °F | °C
As of 3:52 AM on Friday 28 Nov 2014 (Local Time) from KDVN Reporting Station
Overcast Overcast  
Wind Chill:   Ceiling: 7000
Heat Index: 16°   Visibility: 10mi
Dew Point:   Wind: 14mph
Humidity: 71%   Direction: 130°SE
Pressure: 30.26"   Gusts: NA
Location:  41.5718°N, 90.4678°W
Report Text: KDVN 280952Z AUTO 13012KT 10SM BKN070 OVC090 M09/M13 A3026 RMK AO2 PRESFR SLP263 T10891133 FZRANO $
Loading
Personal Weather Stations






























Interactive Weather Map New forecast layout! Learn more

10-Day Weather Forecast

Advertisements
Track Severe Weather on mobile